createdAt,value
2022-09-27T00:01:36.709Z,1.05
2022-09-27T00:04:03.480Z,0.73
2022-09-27T00:06:31.947Z,0.98
2022-09-27T00:09:03.957Z,1.08
2022-09-27T00:14:00.468Z,1.05
2022-09-27T00:16:30.122Z,0.98
2022-09-27T00:19:04.466Z,1.08
2022-09-27T00:21:33.783Z,1.17
2022-09-27T00:24:00.638Z,1.45
2022-09-27T00:26:29.631Z,0.50
2022-09-27T00:28:56.369Z,1.10
2022-09-27T00:31:24.395Z,0.65
2022-09-27T00:33:55.336Z,0.75
2022-09-27T00:36:25.821Z,0.90
2022-09-27T00:38:54.812Z,0.60
2022-09-27T00:41:27.937Z,1.23
2022-09-27T00:44:04.495Z,0.80
2022-09-27T00:46:40.836Z,1.58
2022-09-27T00:49:41.886Z,0.95
2022-09-27T00:52:16.893Z,0.95
2022-09-27T00:54:51.469Z,0.40
2022-09-27T00:57:21.592Z,2.13
2022-09-27T00:59:52.431Z,2.40
2022-09-27T01:02:21.897Z,0.85
2022-09-27T01:04:49.728Z,0.75
2022-09-27T01:07:18.966Z,0.95
2022-09-27T01:09:48.239Z,1.30
2022-09-27T01:12:28.275Z,0.60
2022-09-27T01:15:03.254Z,0.93
2022-09-27T01:17:59.093Z,1.67
2022-09-27T01:20:56.516Z,0.50
2022-09-27T01:23:29.510Z,2.00
2022-09-27T01:25:59.090Z,0.40
2022-09-27T01:29:03.080Z,0.88
2022-09-27T01:31:50.853Z,1.27
2022-09-27T01:34:17.611Z,0.50
2022-09-27T01:36:56.371Z,0.57
2022-09-27T01:40:02.657Z,1.58
2022-09-27T01:42:46.334Z,1.33
2022-09-27T01:45:39.294Z,0.68
2022-09-27T01:48:22.749Z,0.82
2022-09-27T01:51:04.392Z,1.90
2022-09-27T01:53:36.100Z,0.35
2022-09-27T01:56:09.840Z,0.10
2022-09-27T01:58:48.146Z,0.40
2022-09-27T02:01:18.954Z,0.50
2022-09-27T02:03:55.475Z,0.52
2022-09-27T02:06:26.650Z,0.10
2022-09-27T02:09:02.414Z,0.73
2022-09-27T02:11:31.364Z,0.63
2022-09-27T02:14:08.808Z,0.60
2022-09-27T02:16:51.874Z,0.10
2022-09-27T02:19:40.159Z,1.05
2022-09-27T02:22:31.472Z,0.50
2022-09-27T02:25:06.426Z,0.47
2022-09-27T02:27:44.391Z,0.75
2022-09-27T02:30:13.931Z,1.65
2022-09-27T02:32:43.739Z,1.05
2022-09-27T02:35:22.905Z,0.43
2022-09-27T02:37:50.376Z,0.10
2022-09-27T02:40:17.548Z,0.25
2022-09-27T02:42:47.464Z,0.35
2022-09-27T02:45:17.509Z,0.10
2022-09-27T02:47:56.829Z,2.83
2022-09-27T02:50:29.360Z,0.38
2022-09-27T02:53:07.997Z,1.00
2022-09-27T02:55:39.684Z,1.15
2022-09-27T02:58:23.936Z,0.75
2022-09-27T03:01:09.305Z,0.40
2022-09-27T03:04:17.612Z,0.50
2022-09-27T03:06:47.850Z,0.85
2022-09-27T03:09:28.223Z,1.15
2022-09-27T03:11:57.460Z,1.08
2022-09-27T03:14:26.603Z,1.35
2022-09-27T03:16:53.413Z,0.82
2022-09-27T03:19:22.514Z,1.48
2022-09-27T03:21:53.953Z,0.98
2022-09-27T03:24:22.760Z,0.57
2022-09-27T03:26:49.705Z,0.70
2022-09-27T03:29:18.554Z,0.68
2022-09-27T03:31:45.251Z,0.55
2022-09-27T03:34:12.057Z,1.13
2022-09-27T03:36:38.784Z,1.88
2022-09-27T03:39:08.065Z,0.82
2022-09-27T03:41:35.055Z,0.55
2022-09-27T03:44:01.975Z,3.88
2022-09-27T03:46:28.752Z,0.50
2022-09-27T03:48:55.570Z,1.30
2022-09-27T03:51:24.843Z,0.52
2022-09-27T03:53:51.600Z,0.95
2022-09-27T03:56:18.615Z,0.40
2022-09-27T03:58:50.118Z,0.98
2022-09-27T04:01:16.978Z,1.73
2022-09-27T04:03:43.875Z,3.38
2022-09-27T04:06:13.972Z,0.90
2022-09-27T04:08:43.195Z,2.70
2022-09-27T04:11:12.027Z,1.73
2022-09-27T04:13:41.111Z,1.40
2022-09-27T04:16:10.565Z,1.80
2022-09-27T04:18:39.395Z,0.95
2022-09-27T04:21:09.212Z,2.03
2022-09-27T04:23:36.533Z,1.98
2022-09-27T04:26:03.494Z,1.20
2022-09-27T04:28:33.367Z,1.55
2022-09-27T04:31:02.946Z,1.52
2022-09-27T04:33:34.343Z,1.67
2022-09-27T04:36:19.679Z,1.60
2022-09-27T04:38:46.436Z,1.95
2022-09-27T04:41:17.893Z,0.93
2022-09-27T04:43:46.759Z,2.95
2022-09-27T04:46:18.224Z,3.50
2022-09-27T04:48:47.761Z,2.53
2022-09-27T04:51:17.625Z,2.25
2022-09-27T04:53:45.020Z,2.50
2022-09-27T04:56:13.509Z,3.47
2022-09-27T04:58:45.516Z,2.25
2022-09-27T05:03:45.831Z,1.00
2022-09-27T05:06:14.820Z,1.47
2022-09-27T05:08:41.591Z,2.20
2022-09-27T05:11:08.318Z,6.45
2022-09-27T05:13:37.282Z,1.95
2022-09-27T05:16:05.082Z,2.28
2022-09-27T05:18:34.209Z,3.25
2022-09-27T05:21:03.217Z,2.92
2022-09-27T05:23:32.474Z,3.25
2022-09-27T05:26:03.612Z,4.60
2022-09-27T05:28:35.074Z,3.77
2022-09-27T05:31:02.923Z,5.22
2022-09-27T05:33:34.357Z,7.53
2022-09-27T05:36:02.235Z,3.00
2022-09-27T05:38:30.127Z,3.67
2022-09-27T05:40:56.997Z,2.13
2022-09-27T05:43:24.895Z,1.95
2022-09-27T05:45:53.066Z,3.85
2022-09-27T05:48:20.562Z,2.63
2022-09-27T05:50:47.486Z,4.43
2022-09-27T05:53:16.615Z,3.00
2022-09-27T05:55:50.484Z,5.00
2022-09-27T05:58:22.315Z,5.97
2022-09-27T06:00:51.471Z,1.42
2022-09-27T06:03:21.891Z,3.45
2022-09-27T06:05:53.421Z,2.88
2022-09-27T06:08:20.437Z,4.38
2022-09-27T06:10:52.953Z,3.58
2022-09-27T06:13:24.361Z,5.65
2022-09-27T06:15:53.290Z,2.17
2022-09-27T06:18:22.180Z,3.72
2022-09-27T06:20:48.898Z,3.40
2022-09-27T06:23:18.513Z,2.20
2022-09-27T06:25:46.919Z,3.72
2022-09-27T06:28:14.509Z,3.35
2022-09-27T06:30:45.423Z,2.92
2022-09-27T06:33:14.191Z,3.15
2022-09-27T06:35:45.871Z,3.72
2022-09-27T06:38:17.411Z,3.00
2022-09-27T06:40:50.520Z,2.72
2022-09-27T06:43:22.738Z,3.45
2022-09-27T06:45:51.769Z,4.28
2022-09-27T06:48:20.831Z,2.35
2022-09-27T06:50:50.363Z,2.67
2022-09-27T06:53:19.833Z,2.78
2022-09-27T06:55:49.057Z,2.80
2022-09-27T06:58:34.461Z,2.92
2022-09-27T07:01:01.545Z,2.05
2022-09-27T07:03:34.586Z,2.50
2022-09-27T07:06:06.488Z,2.67
2022-09-27T07:08:36.501Z,2.78
2022-09-27T07:11:08.919Z,1.05
2022-09-27T07:13:40.369Z,2.78
2022-09-27T07:16:10.705Z,2.78
2022-09-27T07:18:37.466Z,1.67
2022-09-27T07:21:08.751Z,2.65
2022-09-27T07:23:38.575Z,2.92
2022-09-27T07:26:07.424Z,1.75
2022-09-27T07:28:34.998Z,2.20
2022-09-27T07:31:02.781Z,1.63
2022-09-27T07:33:33.158Z,3.58
2022-09-27T07:36:00.015Z,2.35
2022-09-27T07:38:27.144Z,1.20
2022-09-27T07:40:53.965Z,1.13
2022-09-27T07:43:20.815Z,0.82
2022-09-27T07:45:49.891Z,1.15
2022-09-27T07:48:17.049Z,0.82
2022-09-27T07:50:44.010Z,1.63
2022-09-27T07:53:13.338Z,0.80
2022-09-27T07:55:41.179Z,1.27
2022-09-27T07:58:10.295Z,1.42
2022-09-27T08:00:41.230Z,3.25
2022-09-27T08:03:12.031Z,0.73
2022-09-27T08:05:38.817Z,2.22
2022-09-27T08:08:05.990Z,1.80
2022-09-27T08:10:36.486Z,1.67
2022-09-27T08:13:06.993Z,0.52
2022-09-27T08:15:39.091Z,0.50
2022-09-27T08:18:06.793Z,1.25
2022-09-27T08:20:33.604Z,1.27
2022-09-27T08:23:00.336Z,0.75
2022-09-27T08:25:28.358Z,1.13
2022-09-27T08:27:57.243Z,1.50
2022-09-27T08:30:24.989Z,2.28
2022-09-27T08:33:04.172Z,0.88
2022-09-27T08:35:33.747Z,0.65
2022-09-27T08:38:06.285Z,1.05
2022-09-27T08:40:56.575Z,1.92
2022-09-27T08:43:37.371Z,2.35
2022-09-27T08:46:08.024Z,0.30
2022-09-27T08:48:37.358Z,1.00
2022-09-27T08:51:11.658Z,1.25
2022-09-27T08:53:41.512Z,0.30
2022-09-27T08:56:10.268Z,0.43
2022-09-27T08:58:49.521Z,0.60
2022-09-27T09:01:18.397Z,0.57
2022-09-27T09:03:57.289Z,0.40
2022-09-27T09:06:25.947Z,0.50
2022-09-27T09:09:27.663Z,1.02
2022-09-27T09:12:31.185Z,1.27
2022-09-27T09:15:22.576Z,0.60
2022-09-27T09:18:02.847Z,0.60
2022-09-27T09:21:04.554Z,1.77
2022-09-27T09:23:58.547Z,1.30
2022-09-27T09:26:37.898Z,0.70
2022-09-27T09:29:18.850Z,0.60
2022-09-27T09:31:53.421Z,0.93
2022-09-27T09:34:22.488Z,1.33
2022-09-27T09:37:01.150Z,1.13
2022-09-27T09:39:50.196Z,1.65
2022-09-27T09:42:38.314Z,1.23
2022-09-27T09:45:16.447Z,1.85
2022-09-27T09:48:16.794Z,0.80
2022-09-27T09:50:47.629Z,1.67
2022-09-27T09:53:35.446Z,1.10
2022-09-27T09:56:26.211Z,0.77
2022-09-27T09:59:11.072Z,0.80
2022-09-27T10:01:46.284Z,0.68
2022-09-27T10:04:20.751Z,1.20
2022-09-27T10:06:48.554Z,1.02
2022-09-27T10:09:26.874Z,1.55
2022-09-27T10:11:53.885Z,0.60
2022-09-27T10:14:24.266Z,2.95
2022-09-27T10:17:01.047Z,0.75
2022-09-27T10:19:31.795Z,1.48
2022-09-27T10:22:25.476Z,1.90
2022-09-27T10:24:58.930Z,1.13
2022-09-27T10:27:29.728Z,1.33
2022-09-27T10:29:58.954Z,1.23
2022-09-27T10:32:33.147Z,2.38
2022-09-27T10:35:23.718Z,0.88
2022-09-27T10:37:51.062Z,2.15
2022-09-27T10:40:31.884Z,0.65
2022-09-27T10:42:58.734Z,1.00
2022-09-27T10:45:31.452Z,0.35
2022-09-27T10:48:00.728Z,0.70
2022-09-27T10:50:49.864Z,2.05
2022-09-27T10:53:21.754Z,1.90
2022-09-27T10:55:53.765Z,0.57
2022-09-27T11:01:12.410Z,1.00
2022-09-27T11:03:50.820Z,1.75
2022-09-27T11:06:37.973Z,1.17
2022-09-27T11:09:26.893Z,1.23
2022-09-27T11:12:13.124Z,2.10
2022-09-27T11:14:40.435Z,1.77
2022-09-27T11:17:17.608Z,1.42
2022-09-27T11:19:56.553Z,2.28
2022-09-27T11:22:23.207Z,1.30
2022-09-27T11:25:32.111Z,1.17
2022-09-27T11:28:36.488Z,1.00
2022-09-27T11:31:36.400Z,2.17
2022-09-27T11:34:05.934Z,2.33
2022-09-27T11:36:33.939Z,1.05
2022-09-27T11:39:30.879Z,2.55
2022-09-27T11:42:00.706Z,1.05
2022-09-27T11:44:41.901Z,1.35
2022-09-27T11:47:23.749Z,2.17
2022-09-27T11:50:07.853Z,0.57
2022-09-27T11:53:03.756Z,1.42
2022-09-27T11:55:47.358Z,2.15
2022-09-27T11:58:43.182Z,1.38
2022-09-27T12:01:18.666Z,2.55
2022-09-27T12:04:02.832Z,2.42
2022-09-27T12:06:57.256Z,1.85
2022-09-27T12:09:32.052Z,2.05
2022-09-27T12:12:15.087Z,1.25
2022-09-27T12:14:55.609Z,4.05
2022-09-27T12:17:34.372Z,0.75
2022-09-27T12:20:14.383Z,0.80
2022-09-27T12:22:59.994Z,1.65
2022-09-27T12:25:31.847Z,1.80
2022-09-27T12:28:08.850Z,1.80
2022-09-27T12:30:46.415Z,1.95
2022-09-27T12:33:30.689Z,1.45
2022-09-27T12:36:04.128Z,1.67
2022-09-27T12:38:42.717Z,0.60
2022-09-27T12:41:14.129Z,0.82
2022-09-27T12:43:46.004Z,0.50
2022-09-27T12:46:52.225Z,2.08
2022-09-27T12:49:48.113Z,1.42
2022-09-27T12:52:23.429Z,0.40
2022-09-27T12:54:56.010Z,0.80
2022-09-27T12:57:40.171Z,1.33
2022-09-27T13:00:33.058Z,0.47
2022-09-27T13:03:18.758Z,1.15
2022-09-27T13:06:15.120Z,2.35
2022-09-27T13:09:01.651Z,1.20
2022-09-27T13:11:28.341Z,1.95
2022-09-27T13:13:58.247Z,1.33
2022-09-27T13:16:25.900Z,0.80
2022-09-27T13:19:03.631Z,1.40
2022-09-27T13:21:51.707Z,1.13
2022-09-27T13:24:44.789Z,4.60
2022-09-27T13:27:29.502Z,1.85
2022-09-27T13:30:22.581Z,1.15
2022-09-27T13:33:13.875Z,1.48
2022-09-27T13:35:40.612Z,1.42
2022-09-27T13:38:22.038Z,2.75
2022-09-27T13:40:51.022Z,0.98
2022-09-27T13:43:55.071Z,1.08
2022-09-27T13:46:25.540Z,0.68
2022-09-27T13:49:01.190Z,0.43
2022-09-27T13:51:47.871Z,0.98
2022-09-27T13:54:51.711Z,1.00
2022-09-27T13:57:46.064Z,1.67
2022-09-27T14:00:22.438Z,1.00
2022-09-27T14:02:59.296Z,0.63
2022-09-27T14:05:39.329Z,1.75
2022-09-27T14:08:16.968Z,1.92
2022-09-27T14:10:44.374Z,1.15
2022-09-27T14:13:21.873Z,1.98
2022-09-27T14:15:52.170Z,2.92
2022-09-27T14:18:19.840Z,4.97
2022-09-27T14:20:52.322Z,2.13
2022-09-27T14:23:21.780Z,1.52
2022-09-27T14:25:53.217Z,1.65
2022-09-27T14:28:28.673Z,2.67
2022-09-27T14:31:18.279Z,2.30
2022-09-27T14:33:47.615Z,2.90
2022-09-27T14:36:44.880Z,2.65
2022-09-27T14:39:23.141Z,2.95
2022-09-27T14:41:50.143Z,2.22
2022-09-27T14:44:24.782Z,1.13
2022-09-27T14:47:22.500Z,0.98
2022-09-27T14:49:55.904Z,1.17
2022-09-27T14:52:31.379Z,1.10
2022-09-27T14:55:02.732Z,1.35
2022-09-27T14:57:35.301Z,2.20
2022-09-27T15:00:16.248Z,2.50
2022-09-27T15:02:46.336Z,2.88
2022-09-27T15:05:19.075Z,5.60
2022-09-27T15:07:49.007Z,1.30
2022-09-27T15:10:18.753Z,1.50
2022-09-27T15:12:54.475Z,1.58
2022-09-27T15:15:27.102Z,1.20
2022-09-27T15:17:56.131Z,2.38
2022-09-27T15:20:34.934Z,2.38
2022-09-27T15:23:06.808Z,1.35
2022-09-27T15:25:39.377Z,3.38
2022-09-27T15:28:10.700Z,2.75
2022-09-27T15:30:57.883Z,1.40
2022-09-27T15:33:36.962Z,2.35
2022-09-27T15:36:06.817Z,1.42
2022-09-27T15:38:50.864Z,2.70
2022-09-27T15:41:20.233Z,4.00
2022-09-27T15:43:52.547Z,2.10
2022-09-27T15:46:24.496Z,3.55
2022-09-27T15:49:17.117Z,1.95
2022-09-27T15:51:53.072Z,2.75
2022-09-27T15:54:24.065Z,2.58
2022-09-27T15:56:56.141Z,3.35
2022-09-27T15:59:26.663Z,2.63
2022-09-27T16:02:07.770Z,2.80
2022-09-27T16:04:34.986Z,2.05
2022-09-27T16:07:04.244Z,7.43
2022-09-27T16:09:31.067Z,2.17
2022-09-27T16:11:57.761Z,3.38
2022-09-27T16:14:26.770Z,2.65
2022-09-27T16:17:00.592Z,3.42
2022-09-27T16:19:27.579Z,3.67
2022-09-27T16:21:56.507Z,2.70
2022-09-27T16:24:25.160Z,5.75
2022-09-27T16:26:54.358Z,5.18
2022-09-27T16:29:21.270Z,2.85
2022-09-27T16:31:47.996Z,4.13
2022-09-27T16:34:14.815Z,3.42
2022-09-27T16:36:41.537Z,3.78
2022-09-27T16:39:12.802Z,3.60
2022-09-27T16:41:45.410Z,2.70
2022-09-27T16:44:14.199Z,4.45
2022-09-27T16:46:50.204Z,2.92
2022-09-27T16:49:35.636Z,2.78
2022-09-27T16:52:02.366Z,3.55
2022-09-27T16:54:29.940Z,3.63
2022-09-27T16:56:58.425Z,5.22
2022-09-27T16:59:25.904Z,6.85
2022-09-27T17:01:57.131Z,6.20
2022-09-27T17:04:25.351Z,8.35
2022-09-27T17:06:54.644Z,10.60
2022-09-27T17:09:21.865Z,15.20
2022-09-27T17:11:48.965Z,5.80
2022-09-27T17:14:17.170Z,4.78
2022-09-27T17:16:47.395Z,6.68
2022-09-27T17:19:15.751Z,7.45
2022-09-27T17:21:48.448Z,8.18
2022-09-27T17:24:17.607Z,4.88
2022-09-27T17:26:46.923Z,4.70
2022-09-27T17:29:14.171Z,6.65
2022-09-27T17:31:45.029Z,7.90
2022-09-27T17:34:15.806Z,5.30
2022-09-27T17:36:45.012Z,3.90
2022-09-27T17:39:18.674Z,6.97
2022-09-27T17:41:47.984Z,7.38
2022-09-27T17:44:18.611Z,8.27
2022-09-27T17:46:46.420Z,5.70
2022-09-27T17:49:34.000Z,7.13
2022-09-27T17:52:03.097Z,7.13
2022-09-27T17:54:29.870Z,5.20
2022-09-27T17:56:56.609Z,8.20
2022-09-27T17:59:26.529Z,4.25
2022-09-27T18:01:53.487Z,5.85
2022-09-27T18:04:20.473Z,8.90
2022-09-27T18:06:47.538Z,8.13
2022-09-27T18:09:16.417Z,12.45
2022-09-27T18:11:44.107Z,9.93
2022-09-27T18:14:15.747Z,10.00
2022-09-27T18:19:37.116Z,8.68
2022-09-27T18:22:03.962Z,9.68
2022-09-27T18:24:42.842Z,6.20
2022-09-27T18:27:22.917Z,6.57
2022-09-27T18:29:53.876Z,4.90
2022-09-27T18:32:22.862Z,7.53
2022-09-27T18:34:49.538Z,6.43
2022-09-27T18:37:16.288Z,3.35
2022-09-27T18:39:43.187Z,3.13
2022-09-27T18:42:29.149Z,1.92
2022-09-27T18:44:56.063Z,3.40
2022-09-27T18:47:24.946Z,0.80
2022-09-27T18:49:54.190Z,2.00
2022-09-27T18:52:21.018Z,3.03
2022-09-27T18:54:47.791Z,1.42
2022-09-27T18:57:14.543Z,2.85
2022-09-27T18:59:41.813Z,2.35
2022-09-27T19:02:10.621Z,2.47
2022-09-27T19:04:37.501Z,2.13
2022-09-27T19:07:23.265Z,8.05
2022-09-27T19:10:42.851Z,2.65
2022-09-27T19:13:12.004Z,3.00
2022-09-27T19:15:38.799Z,1.30
2022-09-27T19:18:05.768Z,2.75
2022-09-27T19:20:36.247Z,2.65
2022-09-27T19:23:05.133Z,1.85
2022-09-27T19:25:31.903Z,2.40
2022-09-27T19:28:00.954Z,2.33
2022-09-27T19:30:27.743Z,2.35
2022-09-27T19:32:54.518Z,2.30
2022-09-27T19:35:21.267Z,2.55
2022-09-27T19:37:48.061Z,1.85
2022-09-27T19:40:17.241Z,2.38
2022-09-27T19:42:44.068Z,3.67
2022-09-27T19:45:12.327Z,1.65
2022-09-27T19:47:39.090Z,3.28
2022-09-27T19:50:06.197Z,4.70
2022-09-27T19:52:33.320Z,4.45
2022-09-27T19:55:02.590Z,2.38
2022-09-27T19:57:31.726Z,3.67
2022-09-27T20:00:01.000Z,3.60
2022-09-27T20:02:27.847Z,2.03
2022-09-27T20:04:57.123Z,1.30
2022-09-27T20:07:23.856Z,3.88
2022-09-27T20:09:52.051Z,2.05
2022-09-27T20:12:18.772Z,2.88
2022-09-27T20:14:46.257Z,3.88
2022-09-27T20:17:13.515Z,2.50
2022-09-27T20:19:40.328Z,2.33
2022-09-27T20:22:07.206Z,3.63
2022-09-27T20:24:36.269Z,2.75
2022-09-27T20:27:03.001Z,3.22
2022-09-27T20:29:31.112Z,3.38
2022-09-27T20:32:25.598Z,2.55
2022-09-27T20:34:44.563Z,1.02
2022-09-27T20:37:12.057Z,1.52
2022-09-27T20:39:38.705Z,4.00
2022-09-27T20:42:05.703Z,3.75
2022-09-27T20:44:33.231Z,2.85
2022-09-27T20:47:00.563Z,3.30
2022-09-27T20:49:27.641Z,2.28
2022-09-27T20:51:54.458Z,2.30
2022-09-27T20:54:21.126Z,2.03
2022-09-27T20:56:48.852Z,2.20
2022-09-27T20:59:19.574Z,1.95
2022-09-27T21:01:50.909Z,2.60
2022-09-27T21:04:18.902Z,3.72
2022-09-27T21:06:45.711Z,2.42
2022-09-27T21:09:19.367Z,2.53
2022-09-27T21:11:48.563Z,4.43
2022-09-27T21:14:18.073Z,1.70
2022-09-27T21:16:47.396Z,1.60
2022-09-27T21:19:16.394Z,2.58
2022-09-27T21:21:43.175Z,1.67
2022-09-27T21:24:11.966Z,2.58
2022-09-27T21:26:38.659Z,2.80
2022-09-27T21:29:08.384Z,2.50
2022-09-27T21:31:40.084Z,2.88
2022-09-27T21:34:11.935Z,2.67
2022-09-27T21:36:41.247Z,3.42
2022-09-27T21:39:08.994Z,4.55
2022-09-27T21:41:38.913Z,2.20
2022-09-27T21:44:06.581Z,2.33
2022-09-27T21:46:33.659Z,2.55
2022-09-27T21:49:04.090Z,2.15
2022-09-27T21:51:31.935Z,4.80
2022-09-27T21:54:07.732Z,3.25
2022-09-27T21:56:37.366Z,2.45
2022-09-27T21:59:09.933Z,4.05
2022-09-27T22:01:37.930Z,3.28
2022-09-27T22:04:06.514Z,5.07
2022-09-27T22:06:36.317Z,3.95
2022-09-27T22:09:08.608Z,4.10
2022-09-27T22:11:42.854Z,6.18
2022-09-27T22:14:10.563Z,3.13
2022-09-27T22:16:40.143Z,6.03
2022-09-27T22:19:09.197Z,3.13
2022-09-27T22:21:40.412Z,4.15
2022-09-27T22:24:15.702Z,2.27
2022-09-27T22:26:53.363Z,2.20
2022-09-27T22:29:20.222Z,1.98
2022-09-27T22:31:47.639Z,3.88
2022-09-27T22:34:28.577Z,1.80
2022-09-27T22:37:00.721Z,1.95
2022-09-27T22:42:01.191Z,1.90
2022-09-27T22:44:31.628Z,1.20
2022-09-27T22:46:58.307Z,1.52
2022-09-27T22:49:27.558Z,1.17
2022-09-27T22:51:54.220Z,0.50
2022-09-27T22:54:23.265Z,1.73
2022-09-27T22:56:57.093Z,1.65
2022-09-27T22:59:27.314Z,1.30
2022-09-27T23:01:56.887Z,1.30
2022-09-27T23:04:25.770Z,2.15
2022-09-27T23:06:52.480Z,1.38
2022-09-27T23:09:19.124Z,0.93
2022-09-27T23:11:48.043Z,1.63
2022-09-27T23:14:15.729Z,0.45
2022-09-27T23:16:42.487Z,1.85
2022-09-27T23:19:10.140Z,1.45
2022-09-27T23:21:39.306Z,3.35
2022-09-27T23:24:10.188Z,4.13
2022-09-27T23:26:36.851Z,2.55
2022-09-27T23:29:03.644Z,1.60
2022-09-27T23:31:32.417Z,5.05
2022-09-27T23:34:02.960Z,5.95
2022-09-27T23:36:30.089Z,2.38
2022-09-27T23:39:01.314Z,2.17
2022-09-27T23:41:28.038Z,1.48
2022-09-27T23:43:57.310Z,3.00
2022-09-27T23:46:24.998Z,2.00
2022-09-27T23:48:51.861Z,3.33
2022-09-27T23:51:18.675Z,1.55
2022-09-27T23:53:45.694Z,1.92
2022-09-27T23:56:15.035Z,2.75
2022-09-27T23:58:48.127Z,1.45
